createdAt,value
2023-04-06T00:01:13.694Z,26.70
2023-04-06T00:03:43.615Z,26.90
2023-04-06T00:06:15.393Z,26.90
2023-04-06T00:08:47.172Z,26.90
2023-04-06T00:11:17.089Z,27.00
2023-04-06T00:13:47.763Z,27.00
2023-04-06T00:16:18.208Z,27.00
2023-04-06T00:18:48.540Z,27.10
2023-04-06T00:21:18.728Z,27.20
2023-04-06T00:23:48.483Z,27.20
2023-04-06T00:26:18.413Z,27.30
2023-04-06T00:28:52.417Z,27.30
2023-04-06T00:31:22.887Z,27.40
2023-04-06T00:33:52.710Z,27.30
2023-04-06T00:36:22.807Z,27.40
2023-04-06T00:38:52.868Z,27.50
2023-04-06T00:41:23.248Z,27.60
2023-04-06T00:43:53.002Z,27.70
2023-04-06T00:46:22.854Z,27.80
2023-04-06T00:48:53.573Z,27.80
2023-04-06T00:51:23.481Z,28.00
2023-04-06T00:53:53.320Z,28.10
2023-04-06T00:56:23.953Z,28.20
2023-04-06T00:58:56.621Z,28.20
2023-04-06T01:01:28.134Z,28.30
2023-04-06T01:04:02.554Z,28.30
2023-04-06T01:06:34.659Z,28.40
2023-04-06T01:09:05.393Z,28.40
2023-04-06T01:11:35.596Z,28.50
2023-04-06T01:14:08.887Z,28.60
2023-04-06T01:16:55.498Z,28.70
2023-04-06T01:19:30.956Z,28.80
2023-04-06T01:22:01.873Z,28.90
2023-04-06T01:24:50.163Z,29.00
2023-04-06T01:27:28.058Z,29.10
2023-04-06T01:30:19.771Z,29.30
2023-04-06T01:33:09.504Z,29.40
2023-04-06T01:35:52.122Z,29.50
2023-04-06T01:38:23.572Z,29.70
2023-04-06T01:40:53.882Z,29.80
2023-04-06T01:43:25.864Z,29.80
2023-04-06T01:46:05.267Z,29.90
2023-04-06T01:48:39.161Z,30.00
2023-04-06T01:51:28.399Z,30.10
2023-04-06T01:54:02.244Z,30.20
2023-04-06T01:56:52.930Z,30.40
2023-04-06T01:59:42.746Z,30.40
2023-04-06T02:02:24.343Z,30.60
2023-04-06T02:05:05.154Z,30.70
2023-04-06T02:07:35.672Z,30.90
2023-04-06T02:10:06.303Z,30.90
2023-04-06T02:12:40.680Z,31.10
2023-04-06T02:15:15.885Z,31.20
2023-04-06T02:17:46.213Z,31.50
2023-04-06T02:20:16.109Z,31.50
2023-04-06T02:22:46.232Z,31.50
2023-04-06T02:25:15.923Z,31.70
2023-04-06T02:27:46.342Z,31.80
2023-04-06T02:30:16.284Z,31.80
2023-04-06T02:32:46.941Z,31.80
2023-04-06T02:35:17.450Z,32.00
2023-04-06T02:37:50.730Z,32.10
2023-04-06T02:40:20.792Z,32.20
2023-04-06T02:42:50.634Z,32.30
2023-04-06T02:45:29.277Z,32.40
2023-04-06T02:47:59.236Z,32.50
2023-04-06T02:50:29.036Z,32.60
2023-04-06T02:53:03.988Z,32.80
2023-04-06T02:55:34.020Z,32.70
2023-04-06T02:58:03.860Z,32.80
2023-04-06T03:00:41.686Z,32.70
2023-04-06T03:03:12.046Z,32.80
2023-04-06T03:05:42.810Z,33.00
2023-04-06T03:08:13.752Z,33.00
2023-04-06T03:10:46.616Z,33.10
2023-04-06T03:13:18.497Z,33.30
2023-04-06T03:15:52.910Z,33.40
2023-04-06T03:18:26.328Z,33.30
2023-04-06T03:20:58.725Z,33.40
2023-04-06T03:23:35.479Z,33.50
2023-04-06T03:26:06.508Z,33.60
2023-04-06T03:28:37.191Z,33.50
2023-04-06T03:31:09.211Z,33.60
2023-04-06T03:33:59.081Z,33.70
2023-04-06T03:36:33.823Z,34.00
2023-04-06T03:39:06.726Z,34.00
2023-04-06T03:41:40.773Z,34.10
2023-04-06T03:44:30.642Z,34.30
2023-04-06T03:47:01.107Z,34.60
2023-04-06T03:49:31.544Z,34.70
2023-04-06T03:52:04.401Z,34.80
2023-04-06T03:54:34.469Z,34.90
2023-04-06T03:57:04.278Z,35.00
2023-04-06T03:59:34.673Z,35.20
2023-04-06T04:02:04.572Z,35.40
2023-04-06T04:04:34.668Z,35.50
2023-04-06T04:07:04.546Z,35.50
2023-04-06T04:09:34.806Z,35.60
2023-04-06T04:12:04.792Z,35.70
2023-04-06T04:14:35.519Z,35.60
2023-04-06T04:17:05.906Z,35.80
2023-04-06T04:19:35.756Z,35.80
2023-04-06T04:22:08.218Z,35.90
2023-04-06T04:24:42.549Z,36.10
2023-04-06T04:27:13.948Z,36.20
2023-04-06T04:29:46.231Z,36.40
2023-04-06T04:32:17.387Z,36.50
2023-04-06T04:34:48.824Z,36.60
2023-04-06T04:37:33.537Z,36.60
2023-04-06T04:40:03.983Z,36.70
2023-04-06T04:42:41.433Z,36.90
2023-04-06T04:45:17.310Z,37.10
2023-04-06T04:47:48.241Z,37.40
2023-04-06T04:50:22.124Z,37.00
2023-04-06T04:52:55.077Z,37.20
2023-04-06T04:55:28.538Z,37.40
2023-04-06T04:58:01.985Z,37.50
2023-04-06T05:00:51.876Z,37.60
2023-04-06T05:03:25.864Z,37.50
2023-04-06T05:06:03.156Z,37.50
2023-04-06T05:08:39.112Z,37.40
2023-04-06T05:11:09.683Z,37.30
2023-04-06T05:13:44.940Z,37.40
2023-04-06T05:16:20.763Z,37.50
2023-04-06T05:18:51.730Z,37.40
2023-04-06T05:21:22.818Z,37.50
2023-04-06T05:24:07.228Z,37.60
2023-04-06T05:26:38.050Z,37.60
2023-04-06T05:29:14.414Z,37.80
2023-04-06T05:31:46.317Z,38.10
2023-04-06T05:34:16.909Z,38.30
2023-04-06T05:36:47.687Z,37.90
2023-04-06T05:39:24.294Z,37.80
2023-04-06T05:41:56.433Z,38.10
2023-04-06T05:44:36.289Z,38.60
2023-04-06T05:47:11.946Z,38.50
2023-04-06T05:49:45.615Z,38.90
2023-04-06T05:52:23.481Z,38.90
2023-04-06T05:54:55.510Z,38.80
2023-04-06T05:57:27.810Z,38.50
2023-04-06T05:59:58.161Z,38.60
2023-04-06T06:02:42.481Z,38.80
2023-04-06T06:05:18.709Z,39.10
2023-04-06T06:07:50.587Z,39.10
2023-04-06T06:10:20.892Z,39.30
2023-04-06T06:12:51.066Z,39.40
2023-04-06T06:15:21.504Z,39.50
2023-04-06T06:17:52.151Z,39.60
2023-04-06T06:20:24.278Z,39.70
2023-04-06T06:22:54.842Z,39.70
2023-04-06T06:25:26.720Z,39.80
2023-04-06T06:27:57.130Z,39.80
2023-04-06T06:30:27.134Z,39.90
2023-04-06T06:32:57.442Z,40.00
2023-04-06T06:35:28.510Z,39.90
2023-04-06T06:37:58.664Z,39.90
2023-04-06T06:40:30.906Z,40.00
2023-04-06T06:43:01.740Z,39.90
2023-04-06T06:45:39.021Z,39.90
2023-04-06T06:48:09.360Z,39.60
2023-04-06T06:50:41.232Z,39.60
2023-04-06T06:53:11.832Z,39.60
2023-04-06T06:55:41.760Z,39.40
2023-04-06T06:58:12.506Z,39.70
2023-04-06T07:00:42.748Z,39.90
2023-04-06T07:03:15.189Z,40.10
2023-04-06T07:05:55.350Z,40.20
2023-04-06T07:08:29.869Z,40.10
2023-04-06T07:11:00.361Z,40.20
2023-04-06T07:13:30.528Z,40.50
2023-04-06T07:16:02.293Z,40.50
2023-04-06T07:18:35.547Z,40.50
2023-04-06T07:21:07.667Z,40.20
2023-04-06T07:23:38.095Z,40.20
2023-04-06T07:26:09.711Z,40.10
2023-04-06T07:28:40.980Z,40.30
2023-04-06T07:31:12.954Z,40.20
2023-04-06T07:33:43.963Z,40.30
2023-04-06T07:36:15.743Z,40.30
2023-04-06T07:38:48.608Z,40.60
2023-04-06T07:41:19.662Z,40.60
2023-04-06T07:43:50.972Z,40.50
2023-04-06T07:46:21.685Z,40.50
2023-04-06T07:48:52.921Z,40.30
2023-04-06T07:51:23.047Z,40.40
2023-04-06T07:53:54.666Z,40.60
2023-04-06T07:56:27.619Z,40.60
2023-04-06T07:58:59.586Z,40.60
2023-04-06T08:01:31.066Z,40.70
2023-04-06T08:04:02.913Z,40.50
2023-04-06T08:06:33.338Z,40.60
2023-04-06T08:09:03.209Z,40.70
2023-04-06T08:11:33.295Z,40.60
2023-04-06T08:14:03.205Z,40.80
2023-04-06T08:16:33.475Z,40.70
2023-04-06T08:19:03.395Z,40.70
2023-04-06T08:21:33.480Z,40.80
2023-04-06T08:24:05.419Z,40.70
2023-04-06T08:26:35.685Z,40.70
2023-04-06T08:29:06.558Z,40.60
2023-04-06T08:31:40.150Z,40.60
2023-04-06T08:34:13.923Z,40.60
2023-04-06T08:36:45.139Z,40.50
2023-04-06T08:39:15.067Z,40.50
2023-04-06T08:41:46.497Z,40.40
2023-04-06T08:44:17.518Z,40.20
2023-04-06T08:46:47.644Z,40.20
2023-04-06T08:49:19.862Z,40.10
2023-04-06T08:51:50.514Z,40.20
2023-04-06T08:54:24.001Z,40.20
2023-04-06T08:56:54.906Z,40.00
2023-04-06T08:59:26.494Z,40.00
2023-04-06T09:01:58.542Z,40.10
2023-04-06T09:04:30.328Z,39.90
2023-04-06T09:07:00.556Z,39.70
2023-04-06T09:09:30.492Z,39.60
2023-04-06T09:12:08.652Z,39.70
2023-04-06T09:14:40.353Z,39.80
2023-04-06T09:17:11.794Z,39.80
2023-04-06T09:19:54.288Z,39.80
2023-04-06T09:22:27.107Z,39.80
2023-04-06T09:24:59.037Z,39.80
2023-04-06T09:27:40.798Z,39.60
2023-04-06T09:30:16.258Z,39.50
2023-04-06T09:32:57.265Z,39.40
2023-04-06T09:35:29.328Z,39.30
2023-04-06T09:37:59.555Z,39.40
2023-04-06T09:40:31.516Z,39.30
2023-04-06T09:43:02.509Z,39.30
2023-04-06T09:45:33.408Z,39.20
2023-04-06T09:48:04.179Z,39.20
2023-04-06T09:50:36.031Z,39.10
2023-04-06T09:53:07.418Z,38.90
2023-04-06T09:55:44.935Z,38.90
2023-04-06T09:58:21.697Z,38.80
2023-04-06T10:01:14.192Z,38.80
2023-04-06T10:04:15.006Z,38.80
2023-04-06T10:06:46.588Z,38.60
2023-04-06T10:09:17.646Z,38.40
2023-04-06T10:11:48.819Z,38.40
2023-04-06T10:14:20.121Z,38.40
2023-04-06T10:16:53.056Z,38.20
2023-04-06T10:19:28.948Z,38.10
2023-04-06T10:22:02.796Z,38.10
2023-04-06T10:24:33.847Z,37.90
2023-04-06T10:27:09.069Z,37.80
2023-04-06T10:29:51.354Z,37.80
2023-04-06T10:32:21.646Z,37.70
2023-04-06T10:34:51.493Z,37.60
2023-04-06T10:37:23.109Z,37.50
2023-04-06T10:40:02.456Z,37.50
2023-04-06T10:42:44.594Z,37.40
2023-04-06T10:45:36.519Z,37.30
2023-04-06T10:48:22.282Z,37.20
2023-04-06T10:50:54.953Z,37.20
2023-04-06T10:53:30.062Z,37.10
2023-04-06T10:56:00.970Z,37.00
2023-04-06T10:58:32.573Z,36.90
2023-04-06T11:01:03.453Z,36.80
2023-04-06T11:03:35.565Z,36.80
2023-04-06T11:06:05.953Z,36.80
2023-04-06T11:08:36.475Z,36.70
2023-04-06T11:11:12.237Z,36.60
2023-04-06T11:13:53.925Z,36.40
2023-04-06T11:16:27.867Z,36.30
2023-04-06T11:19:03.174Z,36.40
2023-04-06T11:21:45.967Z,36.20
2023-04-06T11:24:22.517Z,36.10
2023-04-06T11:26:57.518Z,36.10
2023-04-06T11:29:34.087Z,36.00
2023-04-06T11:32:09.108Z,35.80
2023-04-06T11:34:41.476Z,35.90
2023-04-06T11:37:13.419Z,35.80
2023-04-06T11:39:54.658Z,35.70
2023-04-06T11:42:27.801Z,35.60
2023-04-06T11:44:59.508Z,35.60
2023-04-06T11:47:40.759Z,35.60
2023-04-06T11:50:16.598Z,35.60
2023-04-06T11:52:46.968Z,35.50
2023-04-06T11:55:21.647Z,35.40
2023-04-06T11:57:52.481Z,35.30
2023-04-06T12:00:24.467Z,35.20
2023-04-06T12:02:54.692Z,35.20
2023-04-06T12:05:27.656Z,35.10
2023-04-06T12:08:02.538Z,35.10
2023-04-06T12:10:33.755Z,35.00
2023-04-06T12:13:03.800Z,35.00
2023-04-06T12:15:34.024Z,35.00
2023-04-06T12:18:03.845Z,34.90
2023-04-06T12:20:34.929Z,35.00
2023-04-06T12:23:05.054Z,34.70
2023-04-06T12:25:34.839Z,34.50
2023-04-06T12:28:04.810Z,34.50
2023-04-06T12:30:34.775Z,34.60
2023-04-06T12:33:05.171Z,34.50
2023-04-06T12:35:38.299Z,34.40
2023-04-06T12:38:08.518Z,34.40
2023-04-06T12:40:42.349Z,34.40
2023-04-06T12:43:13.193Z,34.40
2023-04-06T12:45:43.545Z,34.30
2023-04-06T12:48:14.370Z,34.30
2023-04-06T12:50:44.433Z,34.30
2023-04-06T12:53:14.227Z,34.10
2023-04-06T12:55:44.445Z,34.10
2023-04-06T12:58:14.309Z,34.00
2023-04-06T13:00:44.429Z,34.00
2023-04-06T13:03:14.579Z,33.90
2023-04-06T13:05:48.889Z,34.00
2023-04-06T13:08:20.641Z,33.80
2023-04-06T13:10:52.272Z,33.80
2023-04-06T13:13:30.753Z,33.80
2023-04-06T13:16:07.156Z,33.70
2023-04-06T13:18:39.636Z,33.70
2023-04-06T13:21:10.666Z,33.70
2023-04-06T13:23:40.615Z,33.70
2023-04-06T13:26:11.002Z,33.70
2023-04-06T13:28:41.862Z,33.70
2023-04-06T13:31:12.556Z,33.60
2023-04-06T13:33:43.455Z,33.50
2023-04-06T13:36:15.763Z,33.40
2023-04-06T13:38:47.892Z,33.40
2023-04-06T13:41:28.963Z,33.40
2023-04-06T13:44:00.482Z,33.40
2023-04-06T13:46:30.463Z,33.30
2023-04-06T13:49:00.278Z,33.20
2023-04-06T13:51:30.397Z,33.20
2023-04-06T13:54:00.179Z,33.20
2023-04-06T13:56:30.206Z,33.30
2023-04-06T13:59:01.281Z,33.20
2023-04-06T14:01:31.680Z,33.20
2023-04-06T14:04:01.608Z,33.10
2023-04-06T14:06:32.467Z,33.10
2023-04-06T14:09:02.801Z,33.00
2023-04-06T14:11:32.922Z,33.00
2023-04-06T14:14:03.324Z,32.80
2023-04-06T14:16:33.797Z,32.70
2023-04-06T14:19:04.177Z,32.60
2023-04-06T14:21:34.285Z,32.60
2023-04-06T14:24:04.342Z,32.50
2023-04-06T14:26:34.627Z,32.50
2023-04-06T14:29:05.258Z,32.50
2023-04-06T14:31:35.698Z,32.50
2023-04-06T14:34:06.667Z,32.60
2023-04-06T14:36:39.850Z,32.60
2023-04-06T14:39:10.378Z,32.60
2023-04-06T14:41:40.322Z,32.50
2023-04-06T14:44:14.545Z,32.50
2023-04-06T14:46:48.176Z,32.60
2023-04-06T14:49:18.456Z,32.30
2023-04-06T14:51:48.365Z,32.30
2023-04-06T14:54:21.309Z,32.30
2023-04-06T14:56:53.186Z,32.30
2023-04-06T14:59:23.009Z,32.30
2023-04-06T15:01:53.927Z,32.10
2023-04-06T15:04:24.047Z,32.10
2023-04-06T15:06:54.408Z,31.90
2023-04-06T15:09:24.343Z,31.90
2023-04-06T15:11:54.317Z,31.90
2023-04-06T15:14:24.082Z,31.90
2023-04-06T15:16:54.702Z,31.70
2023-04-06T15:19:24.695Z,31.60
2023-04-06T15:21:54.698Z,31.70
2023-04-06T15:24:24.489Z,31.60
2023-04-06T15:26:54.624Z,31.80
2023-04-06T15:29:24.441Z,31.70
2023-04-06T15:31:54.534Z,31.60
2023-04-06T15:34:24.555Z,31.60
2023-04-06T15:36:55.378Z,31.60
2023-04-06T15:39:25.392Z,31.60
2023-04-06T15:41:55.196Z,31.60
2023-04-06T15:44:25.604Z,31.50
2023-04-06T15:46:55.807Z,31.50
2023-04-06T15:49:26.289Z,31.50
2023-04-06T15:51:56.080Z,31.60
2023-04-06T15:54:26.118Z,31.50
2023-04-06T15:56:55.892Z,31.40
2023-04-06T15:59:26.091Z,31.30
2023-04-06T16:01:56.165Z,31.30
2023-04-06T16:04:26.252Z,31.30
2023-04-06T16:06:57.200Z,31.50
2023-04-06T16:09:28.292Z,31.30
2023-04-06T16:11:58.303Z,31.10
2023-04-06T16:14:28.515Z,31.10
2023-04-06T16:17:01.091Z,31.20
2023-04-06T16:19:31.338Z,31.20
2023-04-06T16:22:01.164Z,31.10
2023-04-06T16:24:31.349Z,31.00
2023-04-06T16:27:01.769Z,31.00
2023-04-06T16:29:33.570Z,31.00
2023-04-06T16:32:03.917Z,30.90
2023-04-06T16:34:35.108Z,30.90
2023-04-06T16:37:05.600Z,30.80
2023-04-06T16:39:35.492Z,30.90
2023-04-06T16:42:05.564Z,30.90
2023-04-06T16:44:35.370Z,30.80
2023-04-06T16:47:06.222Z,30.90
2023-04-06T16:49:36.052Z,30.80
2023-04-06T16:52:07.846Z,30.80
2023-04-06T16:54:37.889Z,30.80
2023-04-06T16:57:08.103Z,30.80
2023-04-06T16:59:38.357Z,30.80
2023-04-06T17:02:08.596Z,30.70
2023-04-06T17:04:39.142Z,30.60
2023-04-06T17:07:08.930Z,30.70
2023-04-06T17:09:39.014Z,30.60
2023-04-06T17:12:09.006Z,30.40
2023-04-06T17:14:39.070Z,30.00
2023-04-06T17:17:08.908Z,30.30
2023-04-06T17:19:39.184Z,30.10
2023-04-06T17:22:08.999Z,30.00
2023-04-06T17:24:39.006Z,30.20
2023-04-06T17:27:09.070Z,30.10
2023-04-06T17:29:39.150Z,30.20
2023-04-06T17:32:09.363Z,30.10
2023-04-06T17:34:39.304Z,30.30
2023-04-06T17:37:09.090Z,30.30
2023-04-06T17:39:39.180Z,30.40
2023-04-06T17:42:09.936Z,30.40
2023-04-06T17:44:40.252Z,30.20
2023-04-06T17:47:10.048Z,30.30
2023-04-06T17:49:40.083Z,30.20
2023-04-06T17:52:09.960Z,30.00
2023-04-06T17:54:40.228Z,30.00
2023-04-06T17:57:10.161Z,30.00
2023-04-06T17:59:43.816Z,29.90
2023-04-06T18:02:16.317Z,29.60
2023-04-06T18:04:46.307Z,29.50
2023-04-06T18:07:16.328Z,29.70
2023-04-06T18:09:46.148Z,29.50
2023-04-06T18:12:16.319Z,29.60
2023-04-06T18:14:47.263Z,29.70
2023-04-06T18:17:17.596Z,29.60
2023-04-06T18:19:47.838Z,29.40
2023-04-06T18:22:17.897Z,29.40
2023-04-06T18:24:47.963Z,29.20
2023-04-06T18:27:19.098Z,29.40
2023-04-06T18:29:49.308Z,29.40
2023-04-06T18:32:19.173Z,29.60
2023-04-06T18:34:49.377Z,29.60
2023-04-06T18:37:19.148Z,29.50
2023-04-06T18:39:49.162Z,29.50
2023-04-06T18:42:20.972Z,29.60
2023-04-06T18:44:51.383Z,29.60
2023-04-06T18:47:21.561Z,29.70
2023-04-06T18:49:51.860Z,29.80
2023-04-06T18:52:22.007Z,29.70
2023-04-06T18:54:51.770Z,29.70
2023-04-06T18:57:21.832Z,29.80
2023-04-06T18:59:51.622Z,29.60
2023-04-06T19:02:21.917Z,29.40
2023-04-06T19:04:51.896Z,29.40
2023-04-06T19:07:22.277Z,29.40
2023-04-06T19:09:52.238Z,29.30
2023-04-06T19:12:22.206Z,29.40
2023-04-06T19:14:53.609Z,29.40
2023-04-06T19:17:24.001Z,29.30
2023-04-06T19:19:53.818Z,29.30
2023-04-06T19:22:23.798Z,29.20
2023-04-06T19:24:54.105Z,29.30
2023-04-06T19:27:25.879Z,29.30
2023-04-06T19:29:55.861Z,29.20
2023-04-06T19:32:27.227Z,29.10
2023-04-06T19:34:57.699Z,29.20
2023-04-06T19:37:28.052Z,29.20
2023-04-06T19:39:58.213Z,29.30
2023-04-06T19:42:28.244Z,29.20
2023-04-06T19:44:58.693Z,28.80
2023-04-06T19:47:29.710Z,28.50
2023-04-06T19:49:59.464Z,28.30
2023-04-06T19:52:30.175Z,28.20
2023-04-06T19:55:02.182Z,28.10
2023-04-06T19:57:32.310Z,28.10
2023-04-06T20:00:02.802Z,28.20
2023-04-06T20:02:39.181Z,28.70
2023-04-06T20:05:09.534Z,28.70
2023-04-06T20:07:41.196Z,28.50
2023-04-06T20:10:12.133Z,28.70
2023-04-06T20:12:43.419Z,28.90
2023-04-06T20:15:14.207Z,28.90
2023-04-06T20:17:44.708Z,28.90
2023-04-06T20:20:14.907Z,28.80
2023-04-06T20:22:44.788Z,28.50
2023-04-06T20:25:14.822Z,28.50
2023-04-06T20:27:44.992Z,28.50
2023-04-06T20:30:18.542Z,28.40
2023-04-06T20:32:48.571Z,28.40
2023-04-06T20:35:18.643Z,28.30
2023-04-06T20:37:48.848Z,28.20
2023-04-06T20:40:19.228Z,28.10
2023-04-06T20:42:49.698Z,28.40
2023-04-06T20:45:19.562Z,28.60
2023-04-06T20:47:49.621Z,28.60
2023-04-06T20:50:19.504Z,28.60
2023-04-06T20:52:51.051Z,28.50
2023-04-06T20:55:21.132Z,28.30
2023-04-06T20:57:50.960Z,28.30
2023-04-06T21:00:21.426Z,28.20
2023-04-06T21:02:51.542Z,28.10
2023-04-06T21:05:22.289Z,28.00
2023-04-06T21:07:52.473Z,28.20
2023-04-06T21:10:22.518Z,28.20
2023-04-06T21:12:52.761Z,28.20
2023-04-06T21:15:22.493Z,28.10
2023-04-06T21:17:52.775Z,28.10
2023-04-06T21:20:22.748Z,28.10
2023-04-06T21:22:52.804Z,28.10
2023-04-06T21:25:22.595Z,27.90
2023-04-06T21:27:53.755Z,27.70
2023-04-06T21:30:23.775Z,28.00
2023-04-06T21:32:53.641Z,27.80
2023-04-06T21:35:23.744Z,27.70
2023-04-06T21:37:53.548Z,28.00
2023-04-06T21:40:23.500Z,28.00
2023-04-06T21:42:53.271Z,28.10
2023-04-06T21:45:23.631Z,28.00
2023-04-06T21:47:53.853Z,27.70
2023-04-06T21:50:24.172Z,27.80
2023-04-06T21:52:54.097Z,27.90
2023-04-06T21:55:24.171Z,28.00
2023-04-06T21:57:53.940Z,28.00
2023-04-06T22:00:24.956Z,27.90
2023-04-06T22:02:55.170Z,27.90
2023-04-06T22:05:25.092Z,27.80
2023-04-06T22:07:55.434Z,27.80
2023-04-06T22:10:25.700Z,27.80
2023-04-06T22:12:55.682Z,27.70
2023-04-06T22:15:25.732Z,27.70
2023-04-06T22:17:55.981Z,27.30
2023-04-06T22:20:25.813Z,27.40
2023-04-06T22:22:56.833Z,27.40
2023-04-06T22:25:27.268Z,27.30
2023-04-06T22:27:57.078Z,27.40
2023-04-06T22:30:27.141Z,27.50
2023-04-06T22:32:56.983Z,27.60
2023-04-06T22:35:27.466Z,27.60
2023-04-06T22:37:57.414Z,27.70
2023-04-06T22:40:27.507Z,27.70
2023-04-06T22:42:57.300Z,27.60
2023-04-06T22:45:27.944Z,27.10
2023-04-06T22:47:57.733Z,27.00
2023-04-06T22:50:27.858Z,27.30
2023-04-06T22:52:57.611Z,27.50
2023-04-06T22:55:28.000Z,27.20
2023-04-06T22:57:57.923Z,27.10
2023-04-06T23:00:28.151Z,27.20
2023-04-06T23:02:58.229Z,27.30
2023-04-06T23:05:28.395Z,27.00
2023-04-06T23:07:58.206Z,26.90
2023-04-06T23:10:28.485Z,26.70
2023-04-06T23:12:58.342Z,26.70
2023-04-06T23:15:28.333Z,27.10
2023-04-06T23:17:58.139Z,27.30
2023-04-06T23:20:28.365Z,27.10
2023-04-06T23:22:58.099Z,26.80
2023-04-06T23:25:28.723Z,26.80
2023-04-06T23:27:58.902Z,26.90
2023-04-06T23:30:28.693Z,27.20
2023-04-06T23:32:58.657Z,27.30
2023-04-06T23:35:28.414Z,27.40
2023-04-06T23:37:58.605Z,27.30
2023-04-06T23:40:28.476Z,27.30
2023-04-06T23:42:58.420Z,27.40
2023-04-06T23:45:28.350Z,27.40
2023-04-06T23:47:58.550Z,27.40
2023-04-06T23:50:28.533Z,27.40
2023-04-06T23:52:58.588Z,27.50
2023-04-06T23:55:28.367Z,27.50
2023-04-06T23:57:58.589Z,27.60
